Time;durP1;ratioP1;P1;durP2;ratioP2;P2;SDS_P1;SDS_P2;PMS_P1;PMS_P2;Temp;Humidity;BMP_temperature;BMP_pressure;BME280_temperature;BME280_humidity;BME280_pressure;Samples;Min_cycle;Max_cycle;Signal;HPM_P1;HPM_P2
2022/01/19 00:00:54;;;;;;;;;89.75;70.75;6.10;52.70;;;;;;5073413;28;8776;-64
2022/01/19 00:03:19;;;;;;;;;83.75;64.50;6.10;52.70;;;;;;5073904;28;8800;-63
2022/01/19 00:05:45;;;;;;;;;89.00;70.25;6.00;52.90;;;;;;5073528;28;8853;-64
2022/01/19 00:08:17;;;;;;;;;90.50;68.25;6.00;53.20;;;;;;5073689;28;8799;-64
2022/01/19 00:10:44;;;;;;;;;91.25;73.75;6.00;53.20;;;;;;5073681;28;8775;-65
2022/01/19 00:13:09;;;;;;;;;85.50;69.00;6.10;53.20;;;;;;5073120;28;8828;-62
2022/01/19 00:15:35;;;;;;;;;89.25;71.25;6.20;52.70;;;;;;5073308;28;8800;-64
2022/01/19 00:18:01;;;;;;;;;88.00;68.75;6.10;52.90;;;;;;5073493;28;8773;-63
2022/01/19 00:20:31;;;;;;;;;81.00;65.00;6.20;52.50;;;;;;5073253;28;8871;-62
2022/01/19 00:22:57;;;;;;;;;73.75;61.25;6.40;51.60;;;;;;5075780;28;8814;-64
2022/01/19 00:25:24;;;;;;;;;81.50;63.25;6.10;51.90;;;;;;5077641;28;9399;-65
2022/01/19 00:27:50;;;;;;;;;49.25;41.00;5.70;53.20;;;;;;5077246;28;8781;-63
2022/01/19 00:30:17;;;;;;;;;79.50;62.50;5.00;55.20;;;;;;5077273;28;8768;-63
2022/01/19 00:32:43;;;;;;;;;75.25;59.25;5.30;55.10;;;;;;5077346;28;8854;-63
2022/01/19 00:35:11;;;;;;;;;77.75;63.00;5.40;54.60;;;;;;5077023;28;8866;-63
2022/01/19 00:37:38;;;;;;;;;74.25;60.50;5.40;54.20;;;;;;5077079;28;8748;-63
2022/01/19 00:40:06;;;;;;;;;73.75;60.00;5.20;54.90;;;;;;5076794;28;8760;-63
2022/01/19 00:42:32;;;;;;;;;83.50;64.00;5.30;55.20;;;;;;5077167;28;8765;-64
2022/01/19 00:44:58;;;;;;;;;78.50;61.00;5.40;54.50;;;;;;5077124;28;8769;-63
2022/01/19 00:47:24;;;;;;;;;66.50;56.25;5.90;53.80;;;;;;5076671;28;8764;-63
2022/01/19 00:49:49;;;;;;;;;70.50;56.25;6.00;53.10;;;;;;5076560;28;8777;-63
2022/01/19 00:52:15;;;;;;;;;66.75;55.25;5.50;53.10;;;;;;5076570;28;8800;-63
2022/01/19 00:54:41;;;;;;;;;67.00;54.50;4.70;56.20;;;;;;5076892;28;8765;-63
2022/01/19 00:57:09;;;;;;;;;76.25;59.50;4.40;57.20;;;;;;5076831;28;8783;-62
2022/01/19 00:59:35;;;;;;;;;67.25;56.50;4.10;58.70;;;;;;5076597;28;9426;-65
2022/01/19 01:02:02;;;;;;;;;73.00;58.50;4.20;58.70;;;;;;5076548;28;8777;-65
2022/01/19 01:04:28;;;;;;;;;71.00;54.25;4.30;58.70;;;;;;5076707;28;8760;-63
2022/01/19 01:06:54;;;;;;;;;72.25;57.50;4.40;58.00;;;;;;5076946;28;8764;-64
2022/01/19 01:09:21;;;;;;;;;76.25;61.50;4.20;58.80;;;;;;5076583;28;8752;-65
2022/01/19 01:11:57;;;;;;;;;75.50;62.25;4.20;59.60;;;;;;5076444;28;9507;-64
2022/01/19 01:18:18;;;;;;;;;77.50;61.25;4.50;58.80;;;;;;5076340;28;8791;-63
2022/01/19 01:20:04;;;;;;;;;71.50;57.75;4.90;56.90;;;;;;5076121;28;8830;-63
2022/01/19 01:22:30;;;;;;;;;72.50;58.25;4.60;57.70;;;;;;5076340;28;8789;-63
2022/01/19 01:24:56;;;;;;;;;75.50;60.50;4.80;57.20;;;;;;5076141;28;8787;-63
2022/01/19 01:27:22;;;;;;;;;68.50;58.00;5.00;56.50;;;;;;5075854;28;8804;-63
2022/01/19 01:29:48;;;;;;;;;75.75;60.25;4.80;55.90;;;;;;5075842;28;8780;-63
2022/01/19 01:32:14;;;;;;;;;73.50;60.25;4.00;59.10;;;;;;5075994;28;8795;-62
2022/01/19 01:34:40;;;;;;;;;69.25;57.25;4.00;60.00;;;;;;5057971;28;8784;-63
2022/01/19 01:37:06;;;;;;;;;84.00;67.00;4.10;59.80;;;;;;5076023;28;9458;-64
2022/01/19 01:39:32;;;;;;;;;86.25;70.25;4.30;59.10;;;;;;5076076;28;8897;-62
2022/01/19 01:41:58;;;;;;;;;93.75;72.75;4.50;58.40;;;;;;5075864;28;8787;-63
2022/01/19 01:44:23;;;;;;;;;94.25;75.25;4.70;57.40;;;;;;5075968;28;9484;-63
2022/01/19 01:46:54;;;;;;;;;88.75;71.75;4.50;57.60;;;;;;5075760;28;8856;-65
2022/01/19 01:49:42;;;;;;;;;103.50;84.50;4.70;57.50;;;;;;5075928;28;8794;-64
2022/01/19 01:54:51;;;;;;;;;98.75;81.50;4.80;56.70;;;;;;5075631;28;8765;-64
2022/01/19 01:57:17;;;;;;;;;92.00;74.25;4.50;58.00;;;;;;5075897;28;8804;-63
2022/01/19 01:59:43;;;;;;;;;94.25;76.50;4.30;58.90;;;;;;5075692;28;8803;-62
2022/01/19 02:02:09;;;;;;;;;91.50;74.50;4.20;59.20;;;;;;5075852;28;8788;-63
2022/01/19 02:04:40;;;;;;;;;98.25;78.00;3.90;60.00;;;;;;5075499;28;8776;-62
2022/01/19 02:09:50;;;;;;;;;93.00;73.00;4.10;60.00;;;;;;5075521;28;8780;-63
2022/01/19 02:23:21;;;;;;;;;94.50;74.50;3.70;60.90;;;;;;5075134;28;8792;-64
2022/01/19 02:25:49;;;;;;;;;93.00;72.25;4.10;60.10;;;;;;5075442;28;8780;-62
2022/01/19 02:31:44;;;;;;;;;97.00;78.75;4.00;59.80;;;;;;5075033;28;8733;-62
2022/01/19 02:40:06;;;;;;;;;88.25;70.75;4.00;59.80;;;;;;5074910;28;8796;-63
2022/01/19 02:42:27;;;;;;;;;86.25;67.25;4.00;60.20;;;;;;5074798;28;8741;-63
2022/01/19 02:49:51;;;;;;;;;94.50;70.00;4.10;59.40;;;;;;5074953;28;8780;-64
2022/01/19 02:52:18;;;;;;;;;92.50;71.50;3.90;60.20;;;;;;5074570;28;8789;-64
2022/01/19 02:54:45;;;;;;;;;80.75;64.00;3.80;60.90;;;;;;5074766;28;8870;-64
2022/01/19 02:57:13;;;;;;;;;90.00;70.50;4.30;59.30;;;;;;5074481;28;8815;-64
2022/01/19 03:10:34;;;;;;;;;88.75;70.00;3.70;61.00;;;;;;5065731;28;8752;-64
2022/01/19 03:13:00;;;;;;;;;82.00;66.25;3.20;63.90;;;;;;5053726;28;8831;-64
2022/01/19 03:15:27;;;;;;;;;85.00;67.00;3.20;64.00;;;;;;5052759;28;8786;-64
2022/01/19 03:17:57;;;;;;;;;79.50;64.25;3.10;64.60;;;;;;5053834;28;8802;-64
2022/01/19 03:20:23;;;;;;;;;79.75;65.50;3.50;62.90;;;;;;5054127;28;8778;-64
2022/01/19 03:23:00;;;;;;;;;78.75;62.50;3.50;62.60;;;;;;5054510;28;9499;-65
2022/01/19 03:25:26;;;;;;;;;79.25;65.00;3.60;62.20;;;;;;5054367;28;9421;-64
2022/01/19 03:27:52;;;;;;;;;78.00;62.25;3.70;61.90;;;;;;5054388;28;8818;-65
2022/01/19 03:30:19;;;;;;;;;75.00;61.50;3.70;61.80;;;;;;5053981;28;8775;-65
2022/01/19 03:32:45;;;;;;;;;79.75;62.75;3.80;61.40;;;;;;5054266;28;8905;-64
2022/01/19 03:35:12;;;;;;;;;78.50;61.25;4.00;60.30;;;;;;5054367;28;9496;-65
2022/01/19 03:37:39;;;;;;;;;72.00;57.50;4.00;60.40;;;;;;5054147;28;8799;-64
2022/01/19 03:40:06;;;;;;;;;73.25;58.00;3.70;61.80;;;;;;5053847;28;8755;-64
2022/01/19 03:42:32;;;;;;;;;70.00;57.00;4.00;61.10;;;;;;5053363;28;8779;-64
2022/01/19 03:44:58;;;;;;;;;72.00;56.50;3.70;61.50;;;;;;5053522;28;8771;-64
2022/01/19 03:47:26;;;;;;;;;74.00;59.25;3.40;62.70;;;;;;5053772;28;8774;-64
2022/01/19 03:49:52;;;;;;;;;70.75;56.50;3.50;63.20;;;;;;5053679;28;8844;-64
2022/01/19 03:52:18;;;;;;;;;71.00;56.00;3.60;62.20;;;;;;5053692;28;8815;-64
2022/01/19 03:54:45;;;;;;;;;78.75;61.50;3.70;61.70;;;;;;5053952;28;8767;-64
2022/01/19 03:57:11;;;;;;;;;76.25;61.00;3.70;62.30;;;;;;5054613;28;8923;-64
2022/01/19 03:59:37;;;;;;;;;85.50;67.75;4.00;60.90;;;;;;5058106;28;8755;-64
2022/01/19 04:02:04;;;;;;;;;85.00;66.75;4.30;59.90;;;;;;5058097;28;8801;-64
2022/01/19 04:09:23;;;;;;;;;77.50;61.00;4.30;59.60;;;;;;5058113;28;8779;-64
2022/01/19 04:11:50;;;;;;;;;82.50;66.25;4.00;60.00;;;;;;5057728;28;9526;-64
2022/01/19 04:14:22;;;;;;;;;75.50;61.50;3.90;60.70;;;;;;5057638;28;8897;-65
2022/01/19 04:16:53;;;;;;;;;81.75;65.75;3.80;61.40;;;;;;5057462;28;8807;-65
2022/01/19 04:19:26;;;;;;;;;84.00;65.75;3.80;61.10;;;;;;5057911;28;9425;-65
2022/01/19 04:21:53;;;;;;;;;85.00;64.75;4.20;60.10;;;;;;5057653;28;8771;-65
2022/01/19 04:24:20;;;;;;;;;96.50;75.50;4.20;60.10;;;;;;5057737;28;8779;-64
2022/01/19 04:26:50;;;;;;;;;105.25;80.00;4.30;59.70;;;;;;5057562;28;8775;-64
2022/01/19 04:29:15;;;;;;;;;84.75;66.25;4.50;59.20;;;;;;5057525;28;9555;-65
2022/01/19 04:31:41;;;;;;;;;82.00;64.50;4.30;59.30;;;;;;5057578;28;8775;-64
2022/01/19 04:34:08;;;;;;;;;87.25;69.00;4.40;58.70;;;;;;5057334;28;9409;-65
2022/01/19 04:36:58;;;;;;;;;104.00;85.00;4.60;57.80;;;;;;5057176;28;8901;-64
2022/01/19 05:06:02;;;;;;;;;102.00;80.50;3.90;60.30;;;;;;5056991;28;8774;-64
2022/01/19 05:13:39;;;;;;;;;106.25;88.50;3.60;61.20;;;;;;5056489;28;8775;-64
2022/01/19 05:16:05;;;;;;;;;112.00;97.00;3.30;63.40;;;;;;5056244;28;8795;-64
2022/01/19 05:18:32;;;;;;;;;164.00;144.75;3.70;61.90;;;;;;5055996;28;8787;-64
2022/01/19 05:20:58;;;;;;;;;139.75;123.25;3.90;61.00;;;;;;5056165;28;8767;-65
2022/01/19 05:23:24;;;;;;;;;108.00;88.00;4.00;60.70;;;;;;5056590;28;8790;-64
2022/01/19 05:25:51;;;;;;;;;77.75;60.50;4.10;60.20;;;;;;5056248;28;8821;-64
2022/01/19 05:28:16;;;;;;;;;76.50;57.00;3.80;60.80;;;;;;5056197;28;8836;-64
2022/01/19 05:30:42;;;;;;;;;75.00;60.00;4.00;60.90;;;;;;5056309;28;8759;-64
2022/01/19 05:33:08;;;;;;;;;77.25;63.00;4.40;59.20;;;;;;5056233;28;8775;-64
2022/01/19 05:35:34;;;;;;;;;88.50;69.00;4.50;58.10;;;;;;5056116;28;8763;-65
2022/01/19 05:38:00;;;;;;;;;108.25;96.25;4.60;57.70;;;;;;5056108;28;8771;-65
2022/01/19 05:40:26;;;;;;;;;102.75;84.25;4.50;57.60;;;;;;5055924;28;8743;-65
2022/01/19 05:42:52;;;;;;;;;127.50;110.50;4.00;59.20;;;;;;5055969;28;8774;-64
2022/01/19 05:45:18;;;;;;;;;131.50;118.00;3.70;60.90;;;;;;5056267;28;8787;-64
2022/01/19 05:47:45;;;;;;;;;150.25;135.25;3.60;61.50;;;;;;5055839;28;8774;-64
2022/01/19 05:50:12;;;;;;;;;125.50;111.75;3.60;61.50;;;;;;5056101;28;8763;-65
2022/01/19 05:52:38;;;;;;;;;88.00;68.75;3.80;60.80;;;;;;5054841;28;8795;-63
2022/01/19 05:55:04;;;;;;;;;95.25;72.50;3.90;60.60;;;;;;5055586;28;8789;-65
2022/01/19 05:57:31;;;;;;;;;88.00;70.00;3.80;61.30;;;;;;5055665;28;8807;-65
2022/01/19 05:59:57;;;;;;;;;152.50;141.25;4.10;60.50;;;;;;5055847;28;9503;-64
2022/01/19 06:02:23;;;;;;;;;185.75;165.75;4.40;58.70;;;;;;5055519;28;8783;-64
2022/01/19 06:04:49;;;;;;;;;212.25;187.75;3.80;60.80;;;;;;5055101;28;8782;-65
2022/01/19 06:07:16;;;;;;;;;272.75;242.75;3.40;62.20;;;;;;5055354;28;8793;-65
2022/01/19 06:12:10;;;;;;;;;314.25;275.25;2.50;66.80;;;;;;5054880;28;8897;-64
2022/01/19 06:14:37;;;;;;;;;173.75;154.25;2.70;66.50;;;;;;5055157;28;8779;-65
2022/01/19 06:17:05;;;;;;;;;179.50;161.00;3.50;63.60;;;;;;5055171;28;8799;-64
2022/01/19 06:19:32;;;;;;;;;146.00;126.25;3.60;62.30;;;;;;5054224;28;8767;-64
2022/01/19 06:21:58;;;;;;;;;194.50;175.75;3.80;61.70;;;;;;5054873;28;8925;-65
2022/01/19 06:24:23;;;;;;;;;173.00;149.75;4.00;60.80;;;;;;5055209;28;8890;-64
2022/01/19 06:26:49;;;;;;;;;171.75;149.75;4.20;60.30;;;;;;5055387;28;8857;-64
2022/01/19 06:29:16;;;;;;;;;139.00;125.50;4.20;59.60;;;;;;5055426;28;8833;-65
2022/01/19 06:31:42;;;;;;;;;170.25;156.25;4.20;59.80;;;;;;5055007;28;8785;-65
2022/01/19 06:34:08;;;;;;;;;258.75;232.50;4.10;59.90;;;;;;5054936;28;8774;-64
2022/01/19 06:36:34;;;;;;;;;220.25;192.50;4.00;60.10;;;;;;5054821;28;8802;-64
2022/01/19 06:39:00;;;;;;;;;165.50;148.75;4.00;60.50;;;;;;5054787;28;8782;-64
2022/01/19 06:41:26;;;;;;;;;156.00;141.00;3.80;60.80;;;;;;5054712;28;8941;-65
2022/01/19 06:43:51;;;;;;;;;164.25;146.50;3.60;61.90;;;;;;5055065;28;8759;-65
2022/01/19 06:46:17;;;;;;;;;198.75;181.00;3.80;61.10;;;;;;5054790;28;8902;-65
2022/01/19 06:48:43;;;;;;;;;126.75;119.75;3.80;61.60;;;;;;5054938;28;8826;-64
2022/01/19 06:51:09;;;;;;;;;111.00;93.25;4.00;60.80;;;;;;5054905;28;8763;-65
2022/01/19 06:53:35;;;;;;;;;128.25;114.00;3.70;62.10;;;;;;5054703;28;8775;-65
2022/01/19 06:56:01;;;;;;;;;110.25;99.75;3.30;62.50;;;;;;5054514;28;8849;-65
2022/01/19 06:58:28;;;;;;;;;113.00;104.50;3.60;62.30;;;;;;5054564;28;8771;-64
2022/01/19 07:00:56;;;;;;;;;136.75;127.25;3.70;61.80;;;;;;5054359;28;8778;-65
2022/01/19 07:03:22;;;;;;;;;138.25;125.25;3.80;61.50;;;;;;5054335;28;9433;-65
2022/01/19 07:05:48;;;;;;;;;142.50;127.50;4.20;60.30;;;;;;5054721;28;8778;-65
2022/01/19 07:08:15;;;;;;;;;134.75;117.75;4.30;59.50;;;;;;5054365;28;8898;-65
2022/01/19 07:10:41;;;;;;;;;122.00;112.75;4.40;58.90;;;;;;5053356;28;8880;-64
2022/01/19 07:13:07;;;;;;;;;127.75;113.75;4.20;59.50;;;;;;5053791;28;8807;-65
2022/01/19 07:15:33;;;;;;;;;122.00;112.25;4.60;58.40;;;;;;5054243;28;8840;-64
2022/01/19 07:17:59;;;;;;;;;121.25;113.50;4.80;57.50;;;;;;5054425;28;8763;-65
2022/01/19 07:20:25;;;;;;;;;121.50;104.25;4.60;58.20;;;;;;5054439;28;9111;-65
2022/01/19 07:22:56;;;;;;;;;111.50;101.75;4.60;58.00;;;;;;5054324;28;8973;-64
2022/01/19 07:25:22;;;;;;;;;111.50;96.75;4.40;59.10;;;;;;5053913;28;8782;-65
2022/01/19 07:27:48;;;;;;;;;121.75;111.25;4.10;60.60;;;;;;5054076;28;8759;-64
2022/01/19 07:30:14;;;;;;;;;102.00;90.00;4.30;59.60;;;;;;5054080;28;8783;-64
2022/01/19 07:32:40;;;;;;;;;100.00;85.75;4.30;60.00;;;;;;5053847;28;8775;-64
2022/01/19 07:35:07;;;;;;;;;102.25;93.00;4.50;59.40;;;;;;5054320;28;8763;-64
2022/01/19 07:37:33;;;;;;;;;96.50;82.00;4.40;59.40;;;;;;5053874;28;8838;-65
2022/01/19 07:39:59;;;;;;;;;101.25;86.25;4.60;58.60;;;;;;5053812;28;8786;-64
2022/01/19 07:42:25;;;;;;;;;101.25;86.00;4.40;58.70;;;;;;5053784;28;8794;-65
2022/01/19 07:44:53;;;;;;;;;100.50;87.50;4.60;59.20;;;;;;5053966;28;8847;-65
2022/01/19 07:47:19;;;;;;;;;104.50;97.25;4.60;58.80;;;;;;5053943;28;8766;-64
2022/01/19 07:49:45;;;;;;;;;104.25;85.50;4.30;60.00;;;;;;5053921;28;8770;-65
2022/01/19 07:52:11;;;;;;;;;98.50;82.00;4.40;60.50;;;;;;5053496;28;8814;-65
2022/01/19 07:54:37;;;;;;;;;115.00;101.50;4.20;60.90;;;;;;5053712;28;8771;-70
2022/01/19 07:57:03;;;;;;;;;131.25;119.50;4.50;60.50;;;;;;5053845;28;8913;-69
2022/01/19 07:59:29;;;;;;;;;112.00;103.75;4.80;59.30;;;;;;5053732;28;8785;-71
2022/01/19 08:01:56;;;;;;;;;96.50;77.00;5.00;59.00;;;;;;5052411;28;8795;-70
2022/01/19 08:04:22;;;;;;;;;91.75;72.75;4.70;59.10;;;;;;5053863;28;9444;-69
2022/01/19 08:06:53;;;;;;;;;91.75;72.50;3.90;62.20;;;;;;5053369;28;8857;-71
2022/01/19 08:09:20;;;;;;;;;80.75;65.25;3.90;63.20;;;;;;5053719;28;8815;-68
2022/01/19 08:11:46;;;;;;;;;67.75;56.00;4.50;61.30;;;;;;5053429;28;8821;-69
2022/01/19 08:14:12;;;;;;;;;60.75;48.00;4.60;60.20;;;;;;5053511;28;9320;-69
2022/01/19 08:16:37;;;;;;;;;55.75;46.50;4.50;60.40;;;;;;5053640;28;8799;-70
2022/01/19 08:19:03;;;;;;;;;62.75;51.75;4.10;62.60;;;;;;5053637;28;8794;-72
2022/01/19 08:21:29;;;;;;;;;51.75;43.75;4.30;62.60;;;;;;5060192;28;8907;-72
2022/01/19 08:23:55;;;;;;;;;43.25;40.00;4.10;64.10;;;;;;5068366;28;8796;-71
2022/01/19 08:26:21;;;;;;;;;54.50;43.50;4.00;64.80;;;;;;5066203;28;8772;-71
2022/01/19 08:28:46;;;;;;;;;58.75;45.50;4.40;63.20;;;;;;5056192;28;8790;-70
2022/01/19 08:31:12;;;;;;;;;50.25;44.25;4.50;62.00;;;;;;5053819;28;8801;-76
2022/01/19 08:33:38;;;;;;;;;59.00;48.75;4.40;62.20;;;;;;5053863;28;8768;-73
2022/01/19 08:36:04;;;;;;;;;52.50;45.50;4.20;61.90;;;;;;5053732;28;8906;-72
2022/01/19 08:38:30;;;;;;;;;67.00;51.00;4.30;62.70;;;;;;5053851;28;8772;-72
2022/01/19 08:40:56;;;;;;;;;64.50;53.50;4.40;62.50;;;;;;5055769;28;8787;-72
2022/01/19 08:43:22;;;;;;;;;65.25;54.50;4.60;61.70;;;;;;5065816;28;8859;-73
2022/01/19 08:45:48;;;;;;;;;64.25;50.25;4.40;62.00;;;;;;5077462;28;8769;-74
2022/01/19 08:48:14;;;;;;;;;64.00;50.75;4.30;62.40;;;;;;5077345;28;8765;-73
2022/01/19 08:50:39;;;;;;;;;63.00;49.50;4.10;63.10;;;;;;5077138;28;9406;-72
2022/01/19 08:53:05;;;;;;;;;65.00;51.50;4.10;63.50;;;;;;5066414;28;8824;-73
2022/01/19 08:55:31;;;;;;;;;57.50;47.50;4.70;61.90;;;;;;5076114;28;8780;-73
2022/01/19 08:57:57;;;;;;;;;57.00;47.00;5.20;60.80;;;;;;5077486;28;8871;-72
2022/01/19 09:00:23;;;;;;;;;57.25;48.50;5.70;58.30;;;;;;5069423;28;8779;-73
2022/01/19 09:02:49;;;;;;;;;47.75;41.50;6.10;56.40;;;;;;5059758;28;8868;-73
2022/01/19 09:05:15;;;;;;;;;57.25;46.00;6.20;55.60;;;;;;5057139;28;8777;-73
2022/01/19 09:07:42;;;;;;;;;61.50;48.50;5.90;56.30;;;;;;5057104;28;8797;-72
2022/01/19 09:10:10;;;;;;;;;59.00;48.75;5.50;58.20;;;;;;5060103;28;8812;-72
2022/01/19 09:12:36;;;;;;;;;51.50;43.75;5.50;58.50;;;;;;5061165;28;9443;-73
2022/01/19 09:15:05;;;;;;;;;47.25;41.25;5.80;57.50;;;;;;5068360;28;8895;-72
2022/01/19 09:17:31;;;;;;;;;60.25;49.25;6.20;55.90;;;;;;5070268;28;8831;-72
2022/01/19 09:19:56;;;;;;;;;58.25;48.75;6.30;54.90;;;;;;5056854;28;8759;-72
2022/01/19 09:22:22;;;;;;;;;69.00;55.50;6.40;54.50;;;;;;5057013;28;8970;-71
2022/01/19 09:24:48;;;;;;;;;58.25;49.25;6.70;53.90;;;;;;5063763;28;8795;-70
2022/01/19 09:27:15;;;;;;;;;63.25;50.75;6.90;53.50;;;;;;5059881;28;8783;-70
2022/01/19 09:29:43;;;;;;;;;56.50;47.75;7.10;54.10;;;;;;5062670;28;8783;-70
2022/01/19 09:32:13;;;;;;;;;66.25;51.25;7.10;52.20;;;;;;5070017;28;8826;-69
2022/01/19 09:34:47;;;;;;;;;56.75;46.25;6.90;52.50;;;;;;5059482;28;8781;-69
2022/01/19 09:37:14;;;;;;;;;59.25;49.00;6.70;52.80;;;;;;5072663;28;8808;-70
2022/01/19 09:39:40;;;;;;;;;61.00;50.75;7.00;52.20;;;;;;5076598;28;8924;-70
2022/01/19 09:42:06;;;;;;;;;54.25;43.50;7.00;51.90;;;;;;5076111;28;8879;-71
2022/01/19 09:44:32;;;;;;;;;39.00;36.75;6.30;53.60;;;;;;5076501;28;8772;-70
2022/01/19 09:46:59;;;;;;;;;44.50;40.00;6.80;52.40;;;;;;5076388;28;8807;-70
2022/01/19 09:49:25;;;;;;;;;50.00;43.25;7.50;51.10;;;;;;5076132;28;8857;-70
2022/01/19 09:51:54;;;;;;;;;58.50;43.75;7.80;49.90;;;;;;5067580;28;8804;-70
2022/01/19 09:54:22;;;;;;;;;57.00;48.00;7.80;50.10;;;;;;5059762;28;8823;-70
2022/01/19 09:56:49;;;;;;;;;54.75;46.00;7.80;49.80;;;;;;5063777;28;8829;-70
2022/01/19 09:59:16;;;;;;;;;64.00;53.25;8.00;49.90;;;;;;5056333;28;8789;-70
2022/01/19 10:01:49;;;;;;;;;54.25;43.00;8.30;49.40;;;;;;5055015;28;8868;-70
2022/01/19 10:04:24;;;;;;;;;41.25;38.50;8.30;48.10;;;;;;5056051;28;8774;-70
2022/01/19 10:07:16;;;;;;;;;60.25;48.75;8.10;48.10;;;;;;5056022;28;8775;-70
2022/01/19 10:09:57;;;;;;;;;66.00;52.50;8.40;48.20;;;;;;5056346;28;8793;-70
2022/01/19 10:18:12;;;;;;;;;64.50;51.75;8.20;46.80;;;;;;5075729;28;8772;-71
2022/01/19 10:20:38;;;;;;;;;55.00;46.25;8.50;48.30;;;;;;5073518;28;8790;-72
2022/01/19 10:23:05;;;;;;;;;52.50;43.25;9.40;46.90;;;;;;5056839;28;8888;-72
2022/01/19 10:25:51;;;;;;;;;52.50;43.00;10.70;44.80;;;;;;5061376;28;8792;-68
2022/01/19 10:28:16;;;;;;;;;53.25;42.75;14.40;39.50;;;;;;5062728;28;8787;-67
2022/01/19 10:30:42;;;;;;;;;50.67;39.33;17.60;33.80;;;;;;5067266;28;8776;-68
2022/01/19 10:33:14;;;;;;;;;44.33;36.67;20.70;28.80;;;;;;5057277;28;8791;-66
2022/01/19 10:35:39;;;;;;;;;47.00;39.33;22.50;26.30;;;;;;5057718;28;8782;-67
2022/01/19 10:38:28;;;;;;;;;51.00;43.00;24.20;24.30;;;;;;5075261;28;8757;-68
2022/01/19 10:41:02;;;;;;;;;50.33;43.33;25.90;23.20;;;;;;5071163;28;8775;-66
2022/01/19 10:43:41;;;;;;;;;52.67;44.67;27.40;22.20;;;;;;5069976;28;9449;-60
2022/01/19 10:46:16;;;;;;;;;51.00;44.00;28.40;21.30;;;;;;5069864;28;8794;-63
2022/01/19 10:48:44;;;;;;;;;48.67;41.33;28.00;20.90;;;;;;5072505;28;8799;-63
2022/01/19 10:51:11;;;;;;;;;39.67;35.33;29.00;20.70;;;;;;5072357;28;8768;-64
2022/01/19 10:53:40;;;;;;;;;37.33;34.33;29.90;19.80;;;;;;5066712;28;8789;-63
2022/01/19 10:56:06;;;;;;;;;26.67;26.67;30.10;19.30;;;;;;5073483;28;8788;-66
2022/01/19 10:58:51;;;;;;;;;31.67;31.00;30.00;19.20;;;;;;5071798;28;11477;-68
2022/01/19 11:01:42;;;;;;;;;34.00;31.00;30.40;19.10;;;;;;5071943;28;8756;-68
2022/01/19 11:04:18;;;;;;;;;36.00;33.00;30.00;19.00;;;;;;5068369;28;8810;-65
2022/01/19 11:06:45;;;;;;;;;34.00;32.33;30.30;19.10;;;;;;5063182;28;8779;-66
2022/01/19 11:09:14;;;;;;;;;35.00;33.00;29.80;18.60;;;;;;5054869;28;8770;-64
2022/01/19 11:11:43;;;;;;;;;26.67;26.33;28.40;20.00;;;;;;5067693;28;8800;-66
2022/01/19 11:14:13;;;;;;;;;29.00;29.00;28.20;19.80;;;;;;5069176;28;8811;-66
2022/01/19 11:16:40;;;;;;;;;31.00;30.00;28.80;19.50;;;;;;5069950;28;11515;-67
2022/01/19 11:19:06;;;;;;;;;31.33;30.00;28.60;19.90;;;;;;5069082;28;8784;-69
2022/01/19 11:21:51;;;;;;;;;36.67;34.00;28.90;19.40;;;;;;5070033;28;9406;-68
2022/01/19 11:25:00;;;;;;;;;32.67;31.33;29.60;20.20;;;;;;5072854;28;8859;-66
2022/01/19 11:27:29;;;;;;;;;35.33;32.67;30.50;18.50;;;;;;5026787;28;8795;-66
2022/01/19 11:30:24;;;;;;;;;34.00;32.00;30.40;18.60;;;;;;5027070;28;8756;-65
2022/01/19 11:33:24;;;;;;;;;31.67;30.00;31.00;18.40;;;;;;5028717;28;8803;-68
2022/01/19 11:35:54;;;;;;;;;35.33;32.33;30.90;18.30;;;;;;5026560;28;8798;-64
2022/01/19 11:38:50;;;;;;;;;34.33;32.67;30.20;18.80;;;;;;5028498;28;8775;-65
2022/01/19 11:41:16;;;;;;;;;33.00;31.33;31.20;18.30;;;;;;4971094;28;8767;-65
2022/01/19 11:43:51;;;;;;;;;43.67;38.00;32.40;18.10;;;;;;4971863;28;8773;-65
2022/01/19 11:46:39;;;;;;;;;25.00;25.00;33.00;17.40;;;;;;4967611;28;8800;-68
2022/01/19 11:49:07;;;;;;;;;24.67;24.67;34.10;16.90;;;;;;4968638;28;11493;-68
2022/01/19 11:51:42;;;;;;;;;31.67;30.67;33.90;16.80;;;;;;4971725;28;11446;-68
2022/01/19 11:54:33;;;;;;;;;29.33;29.33;33.00;17.20;;;;;;4971594;28;8777;-67
2022/01/19 11:56:59;;;;;;;;;31.00;30.00;32.10;17.50;;;;;;4970026;28;8805;-68
2022/01/19 11:59:46;;;;;;;;;29.00;29.00;29.10;18.90;;;;;;4971245;28;8771;-65
2022/01/19 12:02:36;;;;;;;;;28.33;28.33;29.60;19.00;;;;;;4968452;28;8772;-65
2022/01/19 12:05:11;;;;;;;;;28.33;28.33;31.20;18.20;;;;;;4991306;28;8803;-66
2022/01/19 12:07:53;;;;;;;;;32.33;30.67;32.10;17.70;;;;;;5000974;28;9509;-65
2022/01/19 12:10:31;;;;;;;;;32.67;31.33;31.80;17.70;;;;;;5011914;28;8805;-66
2022/01/19 12:19:14;;;;;;;;;27.67;27.67;32.00;17.60;;;;;;5056107;28;8747;-66
2022/01/19 12:21:45;;;;;;;;;29.00;28.00;32.80;16.80;;;;;;5064558;28;11521;-66
2022/01/19 12:24:19;;;;;;;;;29.67;29.67;33.10;16.80;;;;;;5070908;28;11498;-66
2022/01/19 12:27:03;;;;;;;;;27.00;27.00;33.20;16.60;;;;;;5057918;28;11614;-64
2022/01/19 12:29:38;;;;;;;;;31.00;29.67;34.10;16.40;;;;;;5062882;28;11535;-65
2022/01/19 12:32:17;;;;;;;;;26.67;26.67;33.10;16.80;;;;;;5063343;28;8810;-66
2022/01/19 12:34:43;;;;;;;;;28.33;28.33;33.10;17.10;;;;;;5067815;28;8772;-65
2022/01/19 12:37:10;;;;;;;;;32.67;31.67;33.90;16.60;;;;;;5073084;28;8812;-64
2022/01/19 12:39:43;;;;;;;;;32.67;31.33;33.10;16.90;;;;;;5077356;28;8907;-65
2022/01/19 12:42:17;;;;;;;;;32.00;31.00;33.20;16.90;;;;;;5062805;28;8799;-66
2022/01/19 12:45:02;;;;;;;;;30.00;30.00;33.40;16.70;;;;;;5067622;28;8776;-64
2022/01/19 12:47:30;;;;;;;;;32.67;31.00;33.00;16.80;;;;;;5057137;28;8777;-65
2022/01/19 12:50:08;;;;;;;;;27.00;27.00;32.80;16.50;;;;;;5057216;28;8775;-65
2022/01/19 12:52:46;;;;;;;;;30.67;30.33;31.90;16.70;;;;;;5057460;28;8794;-65
2022/01/19 12:55:17;;;;;;;;;26.00;26.00;31.40;16.60;;;;;;5056095;28;8786;-62
2022/01/19 12:57:43;;;;;;;;;36.67;33.00;31.10;17.00;;;;;;5056979;28;8811;-64
2022/01/19 13:00:13;;;;;;;;;35.00;32.33;30.30;17.30;;;;;;5059692;28;8881;-62
2022/01/19 13:02:38;;;;;;;;;39.33;35.33;31.10;16.90;;;;;;5065837;28;8791;-64
2022/01/19 13:05:13;;;;;;;;;37.33;33.67;30.70;17.50;;;;;;5057173;28;8771;-63
2022/01/19 13:07:42;;;;;;;;;38.67;34.33;30.80;17.30;;;;;;5065871;28;8773;-62
2022/01/19 13:12:55;;;;;;;;;30.33;30.00;30.10;17.50;;;;;;5067318;28;8907;-62
2022/01/19 13:15:38;;;;;;;;;30.33;29.00;29.60;18.00;;;;;;5069285;28;8775;-65
2022/01/19 13:18:04;;;;;;;;;23.00;23.00;30.00;17.60;;;;;;5065414;28;8841;-64
2022/01/19 13:20:31;;;;;;;;;24.33;24.33;30.80;17.40;;;;;;5058004;28;11531;-67
2022/01/19 13:22:58;;;;;;;;;25.67;25.67;31.10;17.30;;;;;;5065529;28;11554;-64
2022/01/19 13:25:32;;;;;;;;;26.67;26.67;31.00;17.40;;;;;;5056722;28;12162;-64
2022/01/19 13:28:00;;;;;;;;;30.33;29.67;31.20;17.10;;;;;;5058822;28;8775;-66
2022/01/19 13:30:28;;;;;;;;;33.00;31.00;30.80;16.80;;;;;;5063993;28;8779;-64
2022/01/19 13:32:55;;;;;;;;;59.00;49.00;30.00;17.20;;;;;;5060378;28;8886;-65
2022/01/19 13:35:23;;;;;;;;;56.50;47.25;28.70;17.40;;;;;;5062940;28;8780;-67
2022/01/19 13:37:58;;;;;;;;;56.00;47.33;27.90;18.40;;;;;;5067658;28;8811;-67
2022/01/19 13:40:31;;;;;;;;;47.67;41.00;28.10;17.90;;;;;;5056310;28;8775;-65
2022/01/19 13:43:04;;;;;;;;;44.67;38.67;26.90;18.60;;;;;;5061002;28;8791;-65
2022/01/19 13:50:53;;;;;;;;;46.33;39.33;24.50;20.30;;;;;;5076897;28;8774;-66
2022/01/19 13:53:28;;;;;;;;;56.67;47.67;23.90;20.20;;;;;;5056815;28;9477;-64
2022/01/19 13:55:59;;;;;;;;;60.75;50.50;24.00;20.30;;;;;;5055641;28;8775;-62
2022/01/19 13:58:42;;;;;;;;;58.00;48.50;22.70;21.40;;;;;;5063538;28;8803;-63
2022/01/19 14:01:14;;;;;;;;;59.75;49.50;20.80;22.80;;;;;;5066843;28;8800;-64
2022/01/19 14:04:05;;;;;;;;;60.25;49.00;17.70;25.00;;;;;;5060504;28;8791;-64
2022/01/19 14:06:33;;;;;;;;;47.75;41.50;15.20;28.20;;;;;;5067419;28;8881;-64
2022/01/19 14:09:27;;;;;;;;;58.25;47.25;13.80;30.20;;;;;;5058573;28;8780;-65
2022/01/19 14:11:59;;;;;;;;;76.50;61.00;13.40;30.30;;;;;;5062245;28;9503;-64
2022/01/19 14:14:32;;;;;;;;;88.25;79.25;12.90;31.90;;;;;;5062933;28;8780;-63
2022/01/19 14:16:58;;;;;;;;;72.00;56.50;12.30;33.30;;;;;;5061511;28;9465;-64
2022/01/19 14:19:28;;;;;;;;;65.75;51.25;11.80;34.70;;;;;;5066765;28;8795;-63
2022/01/19 14:22:03;;;;;;;;;68.00;55.50;11.50;33.90;;;;;;5064341;28;8786;-65
2022/01/19 14:24:41;;;;;;;;;69.00;54.00;11.40;34.30;;;;;;5062698;28;8772;-64
2022/01/19 14:27:13;;;;;;;;;47.00;38.50;11.70;34.00;;;;;;5064427;28;8790;-65
2022/01/19 14:30:12;;;;;;;;;57.50;47.75;11.30;34.40;;;;;;5057476;28;8787;-70
2022/01/19 14:32:45;;;;;;;;;45.75;38.00;10.80;35.20;;;;;;5063532;28;8841;-63
2022/01/19 14:35:40;;;;;;;;;64.50;50.50;10.70;34.70;;;;;;5067564;28;8826;-64